This is the latest recevied weather packets stored in our database for station/object KD7KCN-5. If no packets are shown the sender has not sent any weather packets the latest 1 day(s).
| Time | Temp. | Humidity | Pressure | Rain* | Wind** | Luminosity | Snow |
|---|---|---|---|---|---|---|---|
| 1778078505 | 13.89° C | 43% | 1016.1 hPa | 0 mm | - | 399 W/m² | - |
| 1778076105 | 12.22° C | 46% | 1014.8 hPa | 0 mm | - | 264 W/m² | - |
| 1778075505 | 11.67° C | 48% | 1014.8 hPa | 0 mm | - | 229 W/m² | - |
| 1778073106 | 10° C | 47% | 1014.1 hPa | 0 mm | - | 79 W/m² | - |
| 1778068906 | 8.89° C | 49% | 1013.4 hPa | 0 mm | - | 0 W/m² | - |
| 1778065907 | 8.89° C | 49% | 1013.1 hPa | 0 mm | - | 0 W/m² | - |
| 1778056306 | 10° C | 42% | 1012.5 hPa | 0 mm | - | 0 W/m² | - |
| 1778055706 | 10.56° C | 41% | 1012.6 hPa | 0 mm | - | 0 W/m² | - |
| 1778054506 | 10.56° C | 40% | 1012.4 hPa | 0 mm | - | 0 W/m² | - |
| 1778053906 | 11.11° C | 39% | 1012.5 hPa | 0 mm | - | 0 W/m² | - |
| 1778053308 | 11.67° C | 38% | 1012.4 hPa | 0 mm | - | 0 W/m² | - |
| 1778052706 | 12.22° C | 37% | 1012.5 hPa | 0 mm | - | 0 W/m² | - |
| 1778052106 | 12.22° C | 37% | 1012.3 hPa | 0 mm | - | 0 W/m² | - |
| 1778051508 | 12.22° C | 37% | 1012.1 hPa | 0 mm | - | 0 W/m² | - |
| 1778050906 | 12.22° C | 37% | 1012.1 hPa | 0 mm | - | 0 W/m² | - |
| 1778050306 | 12.22° C | 36% | 1012.3 hPa | 0 mm | - | 0 W/m² | - |
| 1778049106 | 12.22° C | 38% | 1012.2 hPa | 0 mm | - | 0 W/m² | - |
| 1778048506 | 11.67° C | 38% | 1012.3 hPa | 0 mm | - | 0 W/m² | - |
| 1778047907 | 11.67° C | 37% | 1012.5 hPa | 0 mm | - | 0 W/m² | - |
| 1778047306 | 11.67° C | 37% | 1012.3 hPa | 0 mm | - | 0 W/m² | - |
| 1778046706 | 11.67° C | 39% | 1012.1 hPa | 0 mm | - | 0 W/m² | - |
| 1778046106 | 11.11° C | 39% | 1012.1 hPa | 0 mm | - | 0 W/m² | - |
| 1778045506 | 11.11° C | 34% | 1012.2 hPa | 0 mm | - | 0 W/m² | - |
| 1778044907 | 11.11° C | 34% | 1012.1 hPa | 0 mm | - | 0 W/m² | - |
| 1778044308 | 11.67° C | 34% | 1012.1 hPa | 0 mm | - | 0 W/m² | - |
* Rain latest hour (hover to see other rain measurements)
** Current wind speed in m/s (hover to see current wind gust speed)